createdAt,value
2022-09-14T00:08:39.497Z,17.351865682675367
2022-09-14T00:23:56.419Z,17.77908962731941
2022-09-14T00:39:12.428Z,17.859220262319763
2022-09-14T00:54:28.398Z,18.080152743529553
2022-09-14T01:09:44.364Z,18.15318020293614
2022-09-14T01:25:01.312Z,18.362520819090832
2022-09-14T01:40:18.364Z,18.28120419410068
2022-09-14T01:55:35.253Z,18.271496007668677
2022-09-14T02:10:51.236Z,18.34308910631641
2022-09-14T02:26:08.176Z,18.816632563395345
2022-09-14T02:41:24.166Z,18.785182371373015
2022-09-14T02:56:40.108Z,18.828004227669858
2022-09-14T03:11:57.122Z,19.096861845651308
2022-09-14T03:27:15.084Z,18.981083405535166
2022-09-14T03:42:32.051Z,18.55532498329274
2022-09-14T03:57:47.992Z,18.966573802742058
2022-09-14T04:13:03.988Z,19.590109740533624
2022-09-14T04:28:21.070Z,19.708694963499564
2022-09-14T04:43:36.920Z,20.251510950910006
2022-09-14T04:58:52.861Z,20.54
2022-09-14T05:14:09.866Z,20.32
2022-09-14T05:29:27.832Z,19.96
2022-09-14T05:44:44.811Z,19.840000000000003
2022-09-14T06:00:00.774Z,19.91
2022-09-14T06:15:16.703Z,19.77
2022-09-14T06:30:33.700Z,19.62
2022-09-14T06:45:49.639Z,19.51
2022-09-14T07:01:05.708Z,19.51
2022-09-14T07:16:22.587Z,19.4
2022-09-14T07:31:40.595Z,19.490000000000002
2022-09-14T07:46:57.529Z,19.340000000000003
2022-09-14T08:02:13.651Z,19.440000000000005
2022-09-14T08:17:29.455Z,19.36
2022-09-14T08:32:46.429Z,19.430000000000003
2022-09-14T08:48:02.405Z,19.759999999999998
2022-09-14T09:03:19.376Z,20.57
2022-09-14T09:18:36.339Z,21.250000000000004
2022-09-14T09:33:53.307Z,22.690000000000005
2022-09-14T09:49:09.279Z,22.518278922968957
2022-09-14T10:04:25.246Z,21.691852931078564
2022-09-14T10:19:41.209Z,22.10702647948664
2022-09-14T10:34:58.180Z,21.839531960368614
2022-09-14T10:50:14.174Z,21.636610668297685
2022-09-14T11:05:31.113Z,22.287762761536868
2022-09-14T11:20:48.100Z,21.789167753439663
2022-09-14T11:36:05.045Z,22.07162774290923
2022-09-14T11:51:21.048Z,19.30371826879248
2022-09-14T12:06:36.991Z,14.936003510422282
2022-09-14T12:21:52.978Z,14.63466780791321
2022-09-14T12:37:12.129Z,14.362580789173235
2022-09-14T12:52:25.907Z,13.985304902664529
2022-09-14T13:07:42.871Z,14.53122694715871
2022-09-14T13:22:59.848Z,14.505865430845375
2022-09-14T13:38:16.813Z,14.439143429864531
2022-09-14T13:53:32.779Z,13.752260554371418
2022-09-14T14:08:48.845Z,14.216224241036732
2022-09-14T14:24:13.119Z,14.093311911807984
2022-09-14T14:39:21.675Z,13.753711780310056
2022-09-14T14:54:38.656Z,14.08375983813843
2022-09-14T15:09:55.616Z,14.012939910337732
2022-09-14T15:25:29.984Z,13.948365537002665
2022-09-14T15:40:30.597Z,13.354390369982623
2022-09-14T15:55:46.496Z,13.809138867787931
2022-09-14T15:56:27.368Z,13.809138867787931
2022-09-14T16:11:03.493Z,13.543084001794625
2022-09-14T16:26:35.243Z,13.362936342466726
2022-09-14T16:41:33.429Z,13.38519358454657
2022-09-14T16:56:50.354Z,13.405273893957363
2022-09-14T17:12:07.357Z,13.351069429984275
2022-09-14T17:27:24.299Z,13.57496596247664
2022-09-14T17:42:40.295Z,13.697818414117894
2022-09-14T17:57:56.233Z,13.800785548216354
2022-09-14T18:13:12.230Z,13.865636366986193
2022-09-14T18:28:29.166Z,13.673609716677797
2022-09-14T18:43:46.176Z,13.737198423778057
2022-09-14T18:59:03.132Z,13.892924310273647
2022-09-14T19:14:20.097Z,13.873454609696765
2022-09-14T19:29:37.032Z,14.933583342714819
2022-09-14T19:44:53.037Z,14.935712389418347
2022-09-14T20:00:09.016Z,16.70732288442115
2022-09-14T20:15:24.946Z,17.285305380636217
2022-09-14T20:30:41.962Z,16.87962971252901
2022-09-14T20:45:58.908Z,15.262815943284128
2022-09-14T21:01:15.933Z,15.127369170595275
2022-09-14T21:16:31.817Z,13.953110800349068
2022-09-14T21:31:48.945Z,14.813387945160974
2022-09-14T21:47:04.764Z,17.446422017940396
2022-09-14T22:02:20.781Z,18.799999999999997
2022-09-14T22:17:36.704Z,18.630000000000003
2022-09-14T22:32:53.675Z,18.45
2022-09-14T22:48:10.640Z,18.520000000000003
2022-09-14T23:03:27.619Z,18.150000000000002
2022-09-14T23:18:43.583Z,18.000000000000004
2022-09-14T23:34:00.552Z,17.959999999999997
2022-09-14T23:49:16.526Z,17.970000000000002
